Terminal Aerodrome Forecast
Issued by NWS Louisville, KY

Home | Current Version | Previous Version | Text Only | Print | Product List | Glossary On
Versions: 1 2 3 4 5 6 7 8 9 10 11 12 13 14 15 16 17 18 19 20 21
360
FTUS43 KLMK 291734
TAFLEX
TAF
KLEX 291734Z 2918/3018 33006KT P6SM BKN250
     FM300000 VRB04KT P6SM FEW040 BKN100
     FM300800 08009KT P6SM VCSH BKN040
     FM301400 11010KT 5SM -SHRA BKN025=

USA.gov is the U.S. government's official web portal to all federal, state and local government web resources and services.